createdAt,value
2022-08-04T00:01:34.432Z,22.19
2022-08-04T00:04:04.959Z,22.17
2022-08-04T00:06:45.141Z,22.18
2022-08-04T00:09:18.220Z,22.20
2022-08-04T00:11:47.776Z,22.19
2022-08-04T00:14:17.151Z,22.19
2022-08-04T00:16:44.728Z,22.16
2022-08-04T00:19:14.229Z,22.15
2022-08-04T00:21:44.455Z,22.14
2022-08-04T00:24:11.606Z,22.10
2022-08-04T00:26:37.079Z,22.10
2022-08-04T00:29:01.704Z,22.10
2022-08-04T00:31:53.944Z,22.08
2022-08-04T00:34:13.682Z,22.07
2022-08-04T00:36:37.480Z,22.07
2022-08-04T00:39:01.934Z,22.01
2022-08-04T00:41:56.209Z,22.00
2022-08-04T00:44:39.405Z,21.96
2022-08-04T00:47:17.662Z,21.93
2022-08-04T00:50:06.894Z,21.91
2022-08-04T00:52:42.608Z,21.89
2022-08-04T00:55:25.111Z,21.89
2022-08-04T00:58:22.536Z,21.85
2022-08-04T01:00:56.413Z,21.83
2022-08-04T01:03:28.331Z,21.80
2022-08-04T01:06:08.006Z,21.79
2022-08-04T01:08:53.535Z,21.76
2022-08-04T01:11:33.593Z,21.73
2022-08-04T01:14:33.835Z,21.69
2022-08-04T01:17:08.347Z,21.67
2022-08-04T01:20:04.012Z,21.64
2022-08-04T01:23:29.174Z,21.56
2022-08-04T01:26:57.629Z,21.53
2022-08-04T01:29:29.310Z,21.54
2022-08-04T01:32:09.188Z,21.51
2022-08-04T01:34:37.923Z,21.47
2022-08-04T01:37:10.313Z,21.43
2022-08-04T01:39:42.804Z,21.40
2022-08-04T01:42:09.735Z,21.40
2022-08-04T01:44:37.175Z,21.35
2022-08-04T01:47:03.108Z,21.35
2022-08-04T01:49:40.210Z,21.31
2022-08-04T01:52:05.432Z,21.28
2022-08-04T01:54:30.860Z,21.23
2022-08-04T01:56:56.381Z,21.23
2022-08-04T01:59:21.844Z,21.21
2022-08-04T02:01:47.361Z,21.18
2022-08-04T02:04:21.359Z,21.14
2022-08-04T02:07:02.892Z,21.11
2022-08-04T02:09:35.416Z,21.12
2022-08-04T02:12:27.994Z,21.00
2022-08-04T02:14:59.988Z,21.00
2022-08-04T02:17:32.469Z,20.96
2022-08-04T02:20:10.623Z,20.94
2022-08-04T02:22:40.383Z,20.92
2022-08-04T02:25:09.561Z,20.86
2022-08-04T02:28:18.209Z,20.83
2022-08-04T02:30:53.335Z,20.79
2022-08-04T02:33:30.692Z,20.76
2022-08-04T02:36:02.418Z,20.70
2022-08-04T02:38:44.589Z,20.67
2022-08-04T02:41:11.400Z,20.66
2022-08-04T02:43:50.848Z,20.63
2022-08-04T02:46:19.840Z,20.61
2022-08-04T02:48:48.011Z,20.58
2022-08-04T02:51:15.022Z,20.58
2022-08-04T02:53:39.301Z,20.56
2022-08-04T02:56:04.257Z,20.54
2022-08-04T02:58:31.558Z,20.53
2022-08-04T03:00:55.337Z,20.51
2022-08-04T03:03:32.651Z,20.46
2022-08-04T03:06:48.799Z,20.43
2022-08-04T03:09:38.719Z,20.39
2022-08-04T03:12:29.353Z,20.38
2022-08-04T03:15:33.446Z,20.38
2022-08-04T03:18:32.763Z,20.36
2022-08-04T03:21:34.751Z,20.35
2022-08-04T03:24:53.780Z,20.31
2022-08-04T03:28:10.787Z,20.30
2022-08-04T03:30:57.973Z,20.31
2022-08-04T03:33:54.219Z,20.30
2022-08-04T03:36:48.463Z,20.31
2022-08-04T03:40:08.925Z,20.27
2022-08-04T03:43:05.264Z,20.24
2022-08-04T03:46:11.402Z,20.23
2022-08-04T03:49:37.107Z,20.21
2022-08-04T03:52:32.355Z,20.20
2022-08-04T03:55:44.007Z,20.16
2022-08-04T03:58:44.947Z,20.15
2022-08-04T04:01:27.079Z,19.94
2022-08-04T04:04:23.442Z,19.88
2022-08-04T04:07:27.196Z,19.75
2022-08-04T04:10:39.804Z,19.69
2022-08-04T04:13:50.448Z,19.84
2022-08-04T04:16:48.940Z,19.90
2022-08-04T04:19:34.213Z,19.95
2022-08-04T04:22:25.047Z,19.97
2022-08-04T04:25:10.063Z,20.00
2022-08-04T04:27:50.442Z,20.04
2022-08-04T04:30:20.701Z,20.08
2022-08-04T04:33:07.892Z,20.13
2022-08-04T04:35:40.117Z,20.14
2022-08-04T04:38:35.965Z,20.15
2022-08-04T04:41:34.091Z,20.20
2022-08-04T04:44:45.624Z,20.25
2022-08-04T04:47:43.094Z,20.27
2022-08-04T04:50:14.556Z,20.33
2022-08-04T04:52:43.551Z,20.36
2022-08-04T04:55:17.321Z,20.42
2022-08-04T04:57:53.853Z,20.47
2022-08-04T05:00:20.027Z,20.53
2022-08-04T05:03:17.534Z,20.62
2022-08-04T05:06:38.436Z,20.65
2022-08-04T05:09:17.163Z,20.74
2022-08-04T05:14:26.362Z,20.80
2022-08-04T05:15:12.233Z,20.92
2022-08-04T05:17:41.344Z,20.97
2022-08-04T05:20:10.418Z,21.02
2022-08-04T05:22:41.306Z,21.13
2022-08-04T05:25:15.910Z,21.21
2022-08-04T05:27:47.136Z,21.33
2022-08-04T05:30:14.271Z,21.42
2022-08-04T05:32:46.979Z,21.49
2022-08-04T05:35:47.858Z,21.60
2022-08-04T05:38:04.868Z,21.66
2022-08-04T05:40:28.740Z,21.79
2022-08-04T05:42:55.327Z,21.89
2022-08-04T05:45:21.969Z,22.03
2022-08-04T05:47:46.969Z,22.19
2022-08-04T05:50:11.122Z,22.31
2022-08-04T05:52:37.799Z,22.48
2022-08-04T05:55:03.187Z,22.69
2022-08-04T05:57:27.688Z,22.95
2022-08-04T05:59:53.766Z,23.37
2022-08-04T06:02:19.949Z,23.74
2022-08-04T06:04:46.891Z,24.26
2022-08-04T06:07:11.719Z,24.80
2022-08-04T06:09:35.900Z,25.29
2022-08-04T06:12:04.891Z,25.84
2022-08-04T06:14:34.580Z,26.44
2022-08-04T06:16:59.536Z,26.85
2022-08-04T06:20:02.379Z,27.52
2022-08-04T06:22:13.813Z,27.99
2022-08-04T06:24:39.234Z,28.61
2022-08-04T06:27:06.349Z,29.07
2022-08-04T06:29:36.256Z,29.37
2022-08-04T06:32:29.490Z,29.88
2022-08-04T06:34:49.079Z,30.34
2022-08-04T06:37:24.105Z,30.77
2022-08-04T06:39:58.136Z,31.16
2022-08-04T06:42:24.536Z,31.56
2022-08-04T06:44:52.505Z,31.88
2022-08-04T06:47:19.548Z,32.32
2022-08-04T06:51:23.329Z,32.51
2022-08-04T06:52:29.758Z,32.81
2022-08-04T06:54:55.745Z,32.91
2022-08-04T06:57:23.614Z,33.11
2022-08-04T06:59:52.197Z,33.25
2022-08-04T07:02:18.889Z,33.32
2022-08-04T07:04:43.150Z,33.37
2022-08-04T07:07:07.120Z,33.53
2022-08-04T07:09:33.039Z,33.65
2022-08-04T07:11:57.083Z,33.62
2022-08-04T07:14:21.653Z,33.63
2022-08-04T07:16:47.578Z,33.54
2022-08-04T07:19:14.732Z,33.48
2022-08-04T07:21:41.671Z,33.41
2022-08-04T07:24:33.104Z,32.68
2022-08-04T07:26:57.473Z,32.79
2022-08-04T07:29:21.258Z,33.05
2022-08-04T07:31:45.478Z,32.92
2022-08-04T07:34:11.518Z,32.55
2022-08-04T07:36:50.459Z,32.58
2022-08-04T07:39:26.402Z,32.61
2022-08-04T07:41:55.720Z,32.35
2022-08-04T07:44:19.972Z,32.23
2022-08-04T07:46:44.736Z,31.95
2022-08-04T07:49:09.215Z,31.58
2022-08-04T07:51:36.445Z,31.73
2022-08-04T07:54:03.443Z,31.70
2022-08-04T07:56:28.078Z,31.65
2022-08-04T07:58:53.299Z,31.58
2022-08-04T08:01:17.561Z,31.61
2022-08-04T08:03:42.769Z,31.53
2022-08-04T08:06:17.295Z,31.41
2022-08-04T08:08:50.864Z,31.47
2022-08-04T08:11:14.833Z,31.38
2022-08-04T08:13:39.229Z,31.17
2022-08-04T08:16:05.321Z,31.16
2022-08-04T08:18:29.136Z,31.12
2022-08-04T08:20:53.787Z,31.08
2022-08-04T08:23:17.649Z,31.19
2022-08-04T08:25:45.792Z,31.07
2022-08-04T08:28:09.865Z,30.98
2022-08-04T08:30:34.956Z,30.92
2022-08-04T08:33:06.409Z,31.09
2022-08-04T08:35:39.841Z,31.25
2022-08-04T08:38:24.428Z,31.12
2022-08-04T08:40:55.445Z,31.21
2022-08-04T08:44:05.824Z,31.15
2022-08-04T08:46:56.981Z,31.23
2022-08-04T08:50:02.680Z,31.12
2022-08-04T08:52:56.644Z,31.41
2022-08-04T08:55:41.300Z,31.43
2022-08-04T08:58:47.327Z,31.39
2022-08-04T09:01:27.588Z,31.55
2022-08-04T09:04:57.633Z,31.52
2022-08-04T09:07:50.972Z,31.46
2022-08-04T09:10:20.988Z,31.63
2022-08-04T09:12:54.319Z,31.53
2022-08-04T09:15:29.808Z,31.67
2022-08-04T09:18:01.102Z,31.83
2022-08-04T09:20:33.329Z,31.81
2022-08-04T09:23:14.868Z,31.96
2022-08-04T09:25:49.775Z,32.04
2022-08-04T09:28:52.459Z,32.14
2022-08-04T09:31:14.394Z,32.21
2022-08-04T09:33:49.884Z,32.23
2022-08-04T09:36:29.993Z,32.29
2022-08-04T09:39:09.719Z,32.36
2022-08-04T09:41:49.677Z,32.44
2022-08-04T09:44:51.334Z,32.49
2022-08-04T09:47:17.946Z,32.57
2022-08-04T09:49:51.780Z,32.82
2022-08-04T09:52:29.763Z,32.81
2022-08-04T09:55:07.067Z,32.96
2022-08-04T09:57:47.368Z,33.15
2022-08-04T10:00:16.857Z,33.25
2022-08-04T10:02:45.833Z,33.61
2022-08-04T10:05:16.389Z,33.59
2022-08-04T10:08:16.089Z,33.99
2022-08-04T10:10:53.678Z,33.83
2022-08-04T10:13:34.893Z,33.70
2022-08-04T10:16:13.405Z,34.27
2022-08-04T10:18:54.711Z,34.36
2022-08-04T10:21:26.952Z,34.62
2022-08-04T10:24:25.292Z,34.98
2022-08-04T10:26:58.477Z,34.90
2022-08-04T10:29:29.856Z,35.57
2022-08-04T10:32:02.203Z,35.62
2022-08-04T10:34:31.231Z,36.09
2022-08-04T10:37:03.806Z,36.31
2022-08-04T10:39:43.793Z,36.24
2022-08-04T10:42:18.297Z,36.40
2022-08-04T10:44:59.585Z,37.00
2022-08-04T10:47:28.676Z,36.06
2022-08-04T10:49:57.653Z,36.33
2022-08-04T10:52:33.858Z,37.18
2022-08-04T10:55:07.153Z,37.56
2022-08-04T10:57:39.120Z,37.27
2022-08-04T11:00:07.292Z,37.64
2022-08-04T11:02:41.548Z,37.83
2022-08-04T11:05:19.300Z,38.01
2022-08-04T11:07:47.341Z,37.06
2022-08-04T11:10:11.261Z,37.56
2022-08-04T11:12:37.275Z,37.00
2022-08-04T11:15:06.435Z,37.09
2022-08-04T11:17:36.214Z,37.74
2022-08-04T11:20:34.181Z,38.06
2022-08-04T11:23:05.652Z,37.32
2022-08-04T11:25:38.522Z,38.24
2022-08-04T11:28:13.267Z,38.58
2022-08-04T11:30:45.756Z,38.80
2022-08-04T11:33:23.612Z,39.26
2022-08-04T11:35:53.814Z,38.90
2022-08-04T11:38:27.967Z,39.41
2022-08-04T11:41:03.126Z,39.35
2022-08-04T11:44:00.933Z,38.79
2022-08-04T11:46:28.900Z,38.72
2022-08-04T11:49:03.438Z,39.30
2022-08-04T11:51:29.899Z,38.83
2022-08-04T11:53:53.653Z,38.35
2022-08-04T11:56:37.194Z,39.26
2022-08-04T11:59:05.250Z,39.30
2022-08-04T12:01:43.823Z,38.58
2022-08-04T12:04:15.628Z,38.94
2022-08-04T12:06:56.866Z,38.56
2022-08-04T12:09:36.222Z,38.51
2022-08-04T12:12:14.308Z,37.87
2022-08-04T12:14:50.752Z,38.48
2022-08-04T12:17:23.969Z,39.05
2022-08-04T12:20:05.200Z,38.97
2022-08-04T12:22:48.357Z,38.97
2022-08-04T12:25:19.553Z,38.93
2022-08-04T12:27:51.341Z,39.38
2022-08-04T12:31:00.427Z,38.15
2022-08-04T12:33:08.597Z,39.00
2022-08-04T12:35:40.655Z,39.06
2022-08-04T12:38:28.236Z,39.27
2022-08-04T12:40:56.981Z,38.25
2022-08-04T12:43:25.984Z,39.35
2022-08-04T12:45:56.835Z,39.38
2022-08-04T12:48:21.767Z,39.38
2022-08-04T12:50:49.715Z,38.84
2022-08-04T12:53:19.538Z,39.07
2022-08-04T12:56:01.389Z,38.77
2022-08-04T12:58:42.000Z,39.29
2022-08-04T13:02:09.699Z,39.19
2022-08-04T13:04:02.222Z,39.14
2022-08-04T13:06:28.977Z,39.72
2022-08-04T13:08:53.189Z,39.75
2022-08-04T13:11:19.137Z,38.91
2022-08-04T13:13:45.771Z,39.50
2022-08-04T13:16:14.331Z,39.23
2022-08-04T13:18:42.819Z,39.09
2022-08-04T13:21:20.570Z,39.28
2022-08-04T13:24:19.627Z,39.63
2022-08-04T13:26:42.376Z,39.70
2022-08-04T13:29:17.025Z,39.03
2022-08-04T13:31:52.954Z,39.56
2022-08-04T13:34:19.347Z,39.56
2022-08-04T13:36:44.953Z,39.16
2022-08-04T13:39:17.451Z,39.57
2022-08-04T13:41:56.971Z,39.11
2022-08-04T13:44:27.844Z,38.29
2022-08-04T13:46:57.940Z,38.10
2022-08-04T13:49:42.766Z,37.58
2022-08-04T13:52:11.060Z,37.70
2022-08-04T13:54:42.454Z,38.38
2022-08-04T13:57:14.150Z,39.28
2022-08-04T13:59:40.119Z,38.75
2022-08-04T14:02:11.348Z,39.35
2022-08-04T14:04:42.272Z,39.24
2022-08-04T14:07:17.746Z,39.39
2022-08-04T14:10:03.442Z,38.64
2022-08-04T14:12:45.699Z,38.79
2022-08-04T14:16:01.206Z,38.12
2022-08-04T14:18:22.570Z,38.76
2022-08-04T14:21:09.495Z,39.01
2022-08-04T14:23:47.735Z,39.25
2022-08-04T14:26:31.449Z,39.32
2022-08-04T14:29:28.463Z,39.28
2022-08-04T14:31:57.776Z,39.62
2022-08-04T14:34:30.054Z,39.62
2022-08-04T14:37:16.981Z,39.42
2022-08-04T14:39:40.496Z,39.71
2022-08-04T14:42:04.773Z,39.57
2022-08-04T14:44:28.704Z,39.22
2022-08-04T14:46:54.481Z,39.67
2022-08-04T14:49:18.251Z,39.05
2022-08-04T14:51:45.452Z,38.89
2022-08-04T14:54:15.806Z,39.34
2022-08-04T14:56:47.200Z,39.80
2022-08-04T14:59:12.912Z,39.61
2022-08-04T15:01:37.843Z,38.42
2022-08-04T15:04:04.580Z,38.81
2022-08-04T15:06:30.537Z,38.77
2022-08-04T15:08:58.578Z,37.89
2022-08-04T15:11:24.391Z,38.69
2022-08-04T15:13:48.525Z,38.49
2022-08-04T15:16:13.971Z,38.22
2022-08-04T15:18:39.388Z,37.39
2022-08-04T15:21:04.126Z,37.54
2022-08-04T15:23:38.428Z,37.98
2022-08-04T15:26:07.994Z,37.55
2022-08-04T15:28:34.663Z,37.19
2022-08-04T15:30:59.319Z,37.05
2022-08-04T15:33:33.566Z,37.33
2022-08-04T15:36:14.445Z,37.52
2022-08-04T15:38:43.722Z,36.92
2022-08-04T15:41:15.089Z,36.51
2022-08-04T15:44:00.364Z,36.58
2022-08-04T15:47:11.548Z,36.16
2022-08-04T15:49:35.420Z,36.41
2022-08-04T15:52:01.890Z,36.67
2022-08-04T15:54:27.833Z,36.41
2022-08-04T15:57:01.976Z,36.52
2022-08-04T16:00:08.742Z,36.54
2022-08-04T16:02:45.503Z,36.58
2022-08-04T16:05:43.371Z,36.27
2022-08-04T16:08:18.132Z,36.22
2022-08-04T16:10:44.778Z,36.26
2022-08-04T16:13:13.931Z,36.31
2022-08-04T16:15:46.924Z,36.06
2022-08-04T16:18:25.657Z,36.05
2022-08-04T16:20:52.041Z,35.58
2022-08-04T16:23:59.247Z,35.81
2022-08-04T16:26:54.694Z,35.85
2022-08-04T16:29:46.884Z,35.46
2022-08-04T16:32:17.085Z,35.56
2022-08-04T16:34:54.746Z,35.47
2022-08-04T16:37:21.078Z,35.61
2022-08-04T16:39:50.019Z,35.54
2022-08-04T16:42:36.296Z,35.40
2022-08-04T16:45:13.810Z,35.43
2022-08-04T16:48:04.299Z,35.52
2022-08-04T16:50:28.228Z,35.52
2022-08-04T16:52:54.000Z,35.34
2022-08-04T16:55:19.857Z,35.19
2022-08-04T16:57:47.524Z,35.20
2022-08-04T17:00:13.920Z,35.25
2022-08-04T17:02:38.202Z,35.14
2022-08-04T17:05:07.498Z,35.06
2022-08-04T17:08:07.253Z,34.96
2022-08-04T17:10:39.969Z,35.10
2022-08-04T17:14:03.414Z,35.29
2022-08-04T17:16:13.650Z,34.99
2022-08-04T17:18:45.280Z,34.89
2022-08-04T17:21:11.618Z,35.05
2022-08-04T17:24:13.041Z,34.88
2022-08-04T17:26:39.837Z,34.83
2022-08-04T17:29:05.584Z,34.81
2022-08-04T17:31:36.853Z,34.84
2022-08-04T17:34:04.003Z,34.65
2022-08-04T17:36:33.607Z,34.70
2022-08-04T17:39:01.197Z,34.65
2022-08-04T17:41:30.114Z,34.57
2022-08-04T17:44:04.720Z,34.48
2022-08-04T17:46:41.144Z,34.38
2022-08-04T17:49:11.099Z,34.28
2022-08-04T17:52:05.606Z,34.18
2022-08-04T17:54:36.678Z,34.06
2022-08-04T17:57:10.708Z,34.02
2022-08-04T17:59:52.058Z,33.87
2022-08-04T18:02:33.348Z,33.69
2022-08-04T18:05:08.026Z,33.55
2022-08-04T18:08:35.606Z,33.44
2022-08-04T18:10:27.626Z,33.28
2022-08-04T18:12:54.587Z,33.19
2022-08-04T18:15:25.612Z,33.01
2022-08-04T18:18:23.349Z,32.88
2022-08-04T18:20:50.034Z,32.78
2022-08-04T18:23:16.786Z,32.65
2022-08-04T18:25:51.403Z,32.51
2022-08-04T18:28:20.771Z,32.33
2022-08-04T18:30:55.657Z,32.21
2022-08-04T18:33:41.032Z,32.11
2022-08-04T18:36:33.571Z,31.95
2022-08-04T18:38:55.538Z,31.83
2022-08-04T18:41:19.959Z,31.69
2022-08-04T18:43:43.708Z,31.57
2022-08-04T18:46:19.807Z,31.45
2022-08-04T18:48:52.477Z,31.33
2022-08-04T18:51:23.838Z,31.18
2022-08-04T18:53:55.194Z,31.06
2022-08-04T18:59:10.220Z,30.79
2022-08-04T19:02:16.047Z,30.69
2022-08-04T19:04:32.967Z,30.57
2022-08-04T19:07:23.434Z,30.44
2022-08-04T19:09:52.104Z,30.32
2022-08-04T19:12:17.529Z,30.20
2022-08-04T19:14:57.791Z,30.09
2022-08-04T19:17:52.510Z,29.97
2022-08-04T19:20:16.130Z,29.87
2022-08-04T19:24:28.648Z,29.73
2022-08-04T19:26:02.479Z,29.61
2022-08-04T19:28:17.369Z,29.49
2022-08-04T19:30:41.449Z,29.39
2022-08-04T19:33:05.902Z,29.29
2022-08-04T19:35:31.592Z,29.18
2022-08-04T19:38:11.029Z,29.08
2022-08-04T19:40:42.140Z,28.98
2022-08-04T19:43:16.484Z,28.90
2022-08-04T19:45:44.841Z,28.83
2022-08-04T19:48:22.048Z,28.70
2022-08-04T19:50:48.309Z,28.61
2022-08-04T19:53:19.368Z,28.56
2022-08-04T19:55:43.800Z,28.45
2022-08-04T19:58:13.926Z,28.40
2022-08-04T20:00:39.420Z,28.29
2022-08-04T20:03:03.535Z,28.22
2022-08-04T20:05:54.489Z,28.12
2022-08-04T20:08:18.636Z,28.04
2022-08-04T20:10:47.028Z,27.96
2022-08-04T20:13:15.872Z,27.89
2022-08-04T20:15:39.605Z,27.82
2022-08-04T20:18:35.926Z,27.77
2022-08-04T20:21:00.659Z,27.71
2022-08-04T20:23:47.706Z,27.62
2022-08-04T20:26:09.611Z,27.52
2022-08-04T20:28:36.818Z,27.47
2022-08-04T20:31:00.646Z,27.38
2022-08-04T20:33:24.325Z,27.34
2022-08-04T20:36:05.022Z,27.28
2022-08-04T20:38:33.778Z,27.24
2022-08-04T20:40:58.985Z,27.20
2022-08-04T20:43:25.037Z,27.03
2022-08-04T20:45:57.010Z,27.04
2022-08-04T20:48:23.173Z,26.97
2022-08-04T20:50:49.826Z,26.97
2022-08-04T20:53:16.822Z,26.77
2022-08-04T20:55:55.728Z,26.92
2022-08-04T20:58:19.944Z,26.75
2022-08-04T21:00:53.292Z,26.80
2022-08-04T21:03:17.104Z,26.87
2022-08-04T21:05:40.866Z,26.87
2022-08-04T21:08:05.425Z,26.90
2022-08-04T21:10:31.108Z,26.91
2022-08-04T21:12:56.621Z,26.87
2022-08-04T21:15:25.140Z,26.86
2022-08-04T21:17:58.776Z,26.85
2022-08-04T21:20:28.032Z,26.87
2022-08-04T21:22:52.148Z,26.84
2022-08-04T21:25:16.612Z,26.81
2022-08-04T21:27:44.911Z,26.72
2022-08-04T21:30:25.390Z,26.73
2022-08-04T21:32:50.077Z,26.72
2022-08-04T21:35:16.151Z,26.71
2022-08-04T21:37:58.083Z,26.53
2022-08-04T21:40:30.706Z,26.60
2022-08-04T21:43:00.600Z,26.59
2022-08-04T21:45:35.981Z,26.56
2022-08-04T21:48:00.434Z,26.49
2022-08-04T21:50:25.032Z,26.48
2022-08-04T21:52:54.448Z,26.43
2022-08-04T21:55:19.470Z,26.40
2022-08-04T21:57:43.355Z,26.38
2022-08-04T22:00:18.620Z,26.36
2022-08-04T22:02:44.985Z,26.28
2022-08-04T22:05:09.312Z,26.23
2022-08-04T22:07:50.204Z,26.16
2022-08-04T22:10:15.369Z,26.15
2022-08-04T22:12:46.383Z,26.09
2022-08-04T22:15:22.758Z,26.06
2022-08-04T22:18:00.839Z,26.00
2022-08-04T22:20:28.407Z,25.98
2022-08-04T22:22:54.190Z,25.91
2022-08-04T22:25:19.994Z,25.87
2022-08-04T22:28:03.694Z,25.82
2022-08-04T22:30:32.911Z,25.72
2022-08-04T22:32:57.212Z,25.64
2022-08-04T22:35:36.189Z,25.58
2022-08-04T22:38:20.631Z,25.53
2022-08-04T22:40:51.007Z,25.46
2022-08-04T22:43:32.779Z,25.38
2022-08-04T22:45:58.075Z,25.36
2022-08-04T22:48:22.312Z,25.29
2022-08-04T22:50:47.796Z,25.25
2022-08-04T22:53:11.570Z,25.20
2022-08-04T22:56:06.930Z,25.13
2022-08-04T22:58:28.606Z,25.10
2022-08-04T23:00:54.030Z,25.06
2022-08-04T23:03:37.562Z,25.00
2022-08-04T23:06:10.835Z,24.94
2022-08-04T23:08:36.398Z,24.85
2022-08-04T23:11:00.200Z,24.71
2022-08-04T23:13:24.705Z,24.62
2022-08-04T23:15:48.471Z,24.70
2022-08-04T23:18:12.265Z,24.63
2022-08-04T23:20:39.291Z,24.63
2022-08-04T23:23:15.085Z,24.60
2022-08-04T23:26:08.596Z,24.60
2022-08-04T23:28:22.825Z,24.55
2022-08-04T23:30:48.787Z,24.52
2022-08-04T23:33:12.565Z,24.55
2022-08-04T23:35:39.153Z,24.50
2022-08-04T23:38:30.953Z,24.40
2022-08-04T23:40:50.525Z,24.17
2022-08-04T23:43:17.906Z,24.25
2022-08-04T23:46:07.663Z,24.30
2022-08-04T23:48:25.818Z,24.31
2022-08-04T23:50:50.072Z,24.29
2022-08-04T23:53:18.595Z,24.14
2022-08-04T23:55:46.344Z,24.19
2022-08-04T23:58:18.560Z,24.21
